sensor_id;sensor_type;location;lat;lon;timestamp;temperature;humidity
53422;DHT22;39319;52.944;5.928;2024-01-07T00:00:20;3.50;99.90
53422;DHT22;39319;52.944;5.928;2024-01-07T00:02:46;3.50;99.90
53422;DHT22;39319;52.944;5.928;2024-01-07T00:05:12;3.20;99.90
53422;DHT22;39319;52.944;5.928;2024-01-07T00:07:37;3.30;99.90
53422;DHT22;39319;52.944;5.928;2024-01-07T00:10:03;3.70;99.90
53422;DHT22;39319;52.944;5.928;2024-01-07T00:12:29;3.50;99.90
53422;DHT22;39319;52.944;5.928;2024-01-07T00:14:55;3.70;99.90
53422;DHT22;39319;52.944;5.928;2024-01-07T00:17:21;3.30;99.90
53422;DHT22;39319;52.944;5.928;2024-01-07T00:19:46;4.40;99.90
53422;DHT22;39319;52.944;5.928;2024-01-07T00:22:12;3.70;99.90
53422;DHT22;39319;52.944;5.928;2024-01-07T00:24:38;3.70;99.90
53422;DHT22;39319;52.944;5.928;2024-01-07T00:27:03;3.40;99.90
53422;DHT22;39319;52.944;5.928;2024-01-07T00:29:29;2.80;99.90
53422;DHT22;39319;52.944;5.928;2024-01-07T00:32:00;3.90;99.90
53422;DHT22;39319;52.944;5.928;2024-01-07T00:34:25;3.50;99.90
53422;DHT22;39319;52.944;5.928;2024-01-07T00:36:51;3.70;99.90
53422;DHT22;39319;52.944;5.928;2024-01-07T00:39:17;3.50;99.90
53422;DHT22;39319;52.944;5.928;2024-01-07T00:41:42;3.70;99.90
53422;DHT22;39319;52.944;5.928;2024-01-07T00:44:08;3.50;99.90
53422;DHT22;39319;52.944;5.928;2024-01-07T00:46:34;3.60;99.90
53422;DHT22;39319;52.944;5.928;2024-01-07T00:48:59;3.50;99.90
53422;DHT22;39319;52.944;5.928;2024-01-07T00:51:25;3.90;99.90
53422;DHT22;39319;52.944;5.928;2024-01-07T00:53:51;3.40;99.90
53422;DHT22;39319;52.944;5.928;2024-01-07T00:56:16;3.50;99.90
53422;DHT22;39319;52.944;5.928;2024-01-07T00:58:42;3.50;99.90
53422;DHT22;39319;52.944;5.928;2024-01-07T01:01:08;3.70;99.90
53422;DHT22;39319;52.944;5.928;2024-01-07T01:03:33;3.70;99.90
53422;DHT22;39319;52.944;5.928;2024-01-07T01:05:59;3.90;99.90
53422;DHT22;39319;52.944;5.928;2024-01-07T01:08:25;4.50;99.90
53422;DHT22;39319;52.944;5.928;2024-01-07T01:10:50;3.50;99.90
53422;DHT22;39319;52.944;5.928;2024-01-07T01:13:16;3.50;99.90
53422;DHT22;39319;52.944;5.928;2024-01-07T01:15:42;4.20;99.90
53422;DHT22;39319;52.944;5.928;2024-01-07T01:18:07;3.50;99.90
53422;DHT22;39319;52.944;5.928;2024-01-07T01:20:33;3.40;99.90
53422;DHT22;39319;52.944;5.928;2024-01-07T01:23:01;3.90;99.90
53422;DHT22;39319;52.944;5.928;2024-01-07T01:25:27;3.40;99.90
53422;DHT22;39319;52.944;5.928;2024-01-07T01:27:55;3.80;99.90
53422;DHT22;39319;52.944;5.928;2024-01-07T01:30:21;3.60;99.90
53422;DHT22;39319;52.944;5.928;2024-01-07T01:32:47;3.40;99.90
53422;DHT22;39319;52.944;5.928;2024-01-07T01:35:13;3.50;99.90
53422;DHT22;39319;52.944;5.928;2024-01-07T01:37:39;3.20;99.90
53422;DHT22;39319;52.944;5.928;2024-01-07T01:40:05;3.40;99.90
53422;DHT22;39319;52.944;5.928;2024-01-07T01:42:30;3.40;99.90
53422;DHT22;39319;52.944;5.928;2024-01-07T01:44:56;3.50;99.90
53422;DHT22;39319;52.944;5.928;2024-01-07T01:47:25;3.50;99.90
53422;DHT22;39319;52.944;5.928;2024-01-07T01:49:50;3.90;99.90
53422;DHT22;39319;52.944;5.928;2024-01-07T01:52:19;3.60;99.90
53422;DHT22;39319;52.944;5.928;2024-01-07T01:54:45;3.60;99.90
53422;DHT22;39319;52.944;5.928;2024-01-07T01:57:15;3.30;99.90
53422;DHT22;39319;52.944;5.928;2024-01-07T01:59:43;3.50;99.90
53422;DHT22;39319;52.944;5.928;2024-01-07T02:02:08;3.80;99.90
53422;DHT22;39319;52.944;5.928;2024-01-07T02:04:34;4.30;99.90
53422;DHT22;39319;52.944;5.928;2024-01-07T02:07:00;3.50;99.90
53422;DHT22;39319;52.944;5.928;2024-01-07T02:09:26;3.40;99.90
53422;DHT22;39319;52.944;5.928;2024-01-07T02:12:04;3.20;99.90
53422;DHT22;39319;52.944;5.928;2024-01-07T02:14:31;3.40;99.90
53422;DHT22;39319;52.944;5.928;2024-01-07T02:16:57;4.20;99.90
53422;DHT22;39319;52.944;5.928;2024-01-07T02:19:22;4.00;99.90
53422;DHT22;39319;52.944;5.928;2024-01-07T02:21:51;3.20;99.90
53422;DHT22;39319;52.944;5.928;2024-01-07T02:24:17;3.40;99.90
53422;DHT22;39319;52.944;5.928;2024-01-07T02:26:43;3.50;99.90
53422;DHT22;39319;52.944;5.928;2024-01-07T02:29:09;3.20;99.90
53422;DHT22;39319;52.944;5.928;2024-01-07T02:31:35;3.10;99.90
53422;DHT22;39319;52.944;5.928;2024-01-07T02:34:00;3.40;99.90
53422;DHT22;39319;52.944;5.928;2024-01-07T02:36:26;3.50;99.90
53422;DHT22;39319;52.944;5.928;2024-01-07T02:38:52;3.50;99.90
53422;DHT22;39319;52.944;5.928;2024-01-07T02:41:17;3.80;99.90
53422;DHT22;39319;52.944;5.928;2024-01-07T02:43:43;3.20;99.90
53422;DHT22;39319;52.944;5.928;2024-01-07T02:46:09;3.30;99.90
53422;DHT22;39319;52.944;5.928;2024-01-07T02:48:35;3.40;99.90
53422;DHT22;39319;52.944;5.928;2024-01-07T02:51:01;3.40;99.90
53422;DHT22;39319;52.944;5.928;2024-01-07T02:53:29;3.60;99.90
53422;DHT22;39319;52.944;5.928;2024-01-07T02:55:54;3.50;99.90
53422;DHT22;39319;52.944;5.928;2024-01-07T02:58:20;3.30;99.90
53422;DHT22;39319;52.944;5.928;2024-01-07T03:00:45;3.30;99.90
53422;DHT22;39319;52.944;5.928;2024-01-07T03:03:11;3.20;99.90
53422;DHT22;39319;52.944;5.928;2024-01-07T03:05:37;3.10;99.90
53422;DHT22;39319;52.944;5.928;2024-01-07T03:08:03;3.30;99.90
53422;DHT22;39319;52.944;5.928;2024-01-07T03:10:28;3.10;99.90
53422;DHT22;39319;52.944;5.928;2024-01-07T03:12:56;3.20;99.90
53422;DHT22;39319;52.944;5.928;2024-01-07T03:15:22;4.10;99.90
53422;DHT22;39319;52.944;5.928;2024-01-07T03:17:48;3.10;99.90
53422;DHT22;39319;52.944;5.928;2024-01-07T03:20:14;4.00;99.90
53422;DHT22;39319;52.944;5.928;2024-01-07T03:22:39;3.50;99.90
53422;DHT22;39319;52.944;5.928;2024-01-07T03:25:05;3.40;99.90
53422;DHT22;39319;52.944;5.928;2024-01-07T03:27:31;3.00;99.80
53422;DHT22;39319;52.944;5.928;2024-01-07T03:29:57;3.40;99.90
53422;DHT22;39319;52.944;5.928;2024-01-07T03:32:23;3.70;99.90
53422;DHT22;39319;52.944;5.928;2024-01-07T03:34:48;3.00;99.70
53422;DHT22;39319;52.944;5.928;2024-01-07T03:37:14;3.10;99.80
53422;DHT22;39319;52.944;5.928;2024-01-07T03:39:40;3.10;99.80
53422;DHT22;39319;52.944;5.928;2024-01-07T03:42:07;3.20;99.50
53422;DHT22;39319;52.944;5.928;2024-01-07T03:44:38;3.50;99.90
53422;DHT22;39319;52.944;5.928;2024-01-07T03:47:04;2.90;99.90
53422;DHT22;39319;52.944;5.928;2024-01-07T03:49:30;3.10;99.80
53422;DHT22;39319;52.944;5.928;2024-01-07T03:51:56;3.00;99.80
53422;DHT22;39319;52.944;5.928;2024-01-07T03:54:22;2.90;99.80
53422;DHT22;39319;52.944;5.928;2024-01-07T03:56:47;3.10;99.80
53422;DHT22;39319;52.944;5.928;2024-01-07T03:59:13;3.00;99.60
53422;DHT22;39319;52.944;5.928;2024-01-07T04:01:39;3.10;99.50
53422;DHT22;39319;52.944;5.928;2024-01-07T04:04:04;3.20;99.60
53422;DHT22;39319;52.944;5.928;2024-01-07T04:06:30;3.30;99.60
53422;DHT22;39319;52.944;5.928;2024-01-07T04:08:56;3.30;99.80
53422;DHT22;39319;52.944;5.928;2024-01-07T04:11:22;3.30;99.80
53422;DHT22;39319;52.944;5.928;2024-01-07T04:13:47;3.20;99.80
53422;DHT22;39319;52.944;5.928;2024-01-07T04:16:19;3.10;99.90
53422;DHT22;39319;52.944;5.928;2024-01-07T04:18:46;3.30;99.90
53422;DHT22;39319;52.944;5.928;2024-01-07T04:21:12;3.30;99.70
53422;DHT22;39319;52.944;5.928;2024-01-07T04:23:39;3.60;99.60
53422;DHT22;39319;52.944;5.928;2024-01-07T04:26:07;3.20;99.70
53422;DHT22;39319;52.944;5.928;2024-01-07T04:28:33;3.20;99.50
53422;DHT22;39319;52.944;5.928;2024-01-07T04:30:58;2.90;99.30
53422;DHT22;39319;52.944;5.928;2024-01-07T04:33:24;3.80;99.40
53422;DHT22;39319;52.944;5.928;2024-01-07T04:35:50;2.90;99.10
53422;DHT22;39319;52.944;5.928;2024-01-07T04:38:15;2.90;99.00
53422;DHT22;39319;52.944;5.928;2024-01-07T04:40:41;3.10;99.20
53422;DHT22;39319;52.944;5.928;2024-01-07T04:43:09;3.00;99.00
53422;DHT22;39319;52.944;5.928;2024-01-07T04:45:36;2.80;98.60
53422;DHT22;39319;52.944;5.928;2024-01-07T04:48:01;3.50;98.70
53422;DHT22;39319;52.944;5.928;2024-01-07T04:50:27;3.00;98.70
53422;DHT22;39319;52.944;5.928;2024-01-07T04:52:53;3.20;98.70
53422;DHT22;39319;52.944;5.928;2024-01-07T04:55:18;2.90;98.70
53422;DHT22;39319;52.944;5.928;2024-01-07T04:57:46;3.20;98.90
53422;DHT22;39319;52.944;5.928;2024-01-07T05:00:12;3.10;98.70
53422;DHT22;39319;52.944;5.928;2024-01-07T05:02:38;3.10;98.80
53422;DHT22;39319;52.944;5.928;2024-01-07T05:05:04;3.50;98.80
53422;DHT22;39319;52.944;5.928;2024-01-07T05:07:30;3.00;98.90
53422;DHT22;39319;52.944;5.928;2024-01-07T05:09:55;3.60;99.10
53422;DHT22;39319;52.944;5.928;2024-01-07T05:12:21;2.80;99.00
53422;DHT22;39319;52.944;5.928;2024-01-07T05:14:47;3.20;99.20
53422;DHT22;39319;52.944;5.928;2024-01-07T05:17:13;3.10;99.20
53422;DHT22;39319;52.944;5.928;2024-01-07T05:19:41;3.10;99.10
53422;DHT22;39319;52.944;5.928;2024-01-07T05:22:07;3.10;99.10
53422;DHT22;39319;52.944;5.928;2024-01-07T05:24:33;3.60;99.20
53422;DHT22;39319;52.944;5.928;2024-01-07T05:26:58;2.90;98.80
53422;DHT22;39319;52.944;5.928;2024-01-07T05:29:24;2.80;98.70
53422;DHT22;39319;52.944;5.928;2024-01-07T05:31:50;3.20;98.80
53422;DHT22;39319;52.944;5.928;2024-01-07T05:34:15;2.80;98.60
53422;DHT22;39319;52.944;5.928;2024-01-07T05:36:41;2.90;98.40
53422;DHT22;39319;52.944;5.928;2024-01-07T05:39:07;3.10;98.20
53422;DHT22;39319;52.944;5.928;2024-01-07T05:41:33;3.00;98.20
53422;DHT22;39319;52.944;5.928;2024-01-07T05:43:58;2.80;98.30
53422;DHT22;39319;52.944;5.928;2024-01-07T05:46:24;3.10;98.40
53422;DHT22;39319;52.944;5.928;2024-01-07T05:48:50;2.90;98.30
53422;DHT22;39319;52.944;5.928;2024-01-07T05:51:16;3.20;98.30
53422;DHT22;39319;52.944;5.928;2024-01-07T05:53:43;3.40;98.00
53422;DHT22;39319;52.944;5.928;2024-01-07T05:56:09;3.20;97.80
53422;DHT22;39319;52.944;5.928;2024-01-07T05:58:35;3.00;97.60
53422;DHT22;39319;52.944;5.928;2024-01-07T06:01:00;3.00;97.90
53422;DHT22;39319;52.944;5.928;2024-01-07T06:03:26;3.20;98.10
53422;DHT22;39319;52.944;5.928;2024-01-07T06:05:52;2.80;97.70
53422;DHT22;39319;52.944;5.928;2024-01-07T06:08:18;3.20;97.80
53422;DHT22;39319;52.944;5.928;2024-01-07T06:10:46;2.90;97.70
53422;DHT22;39319;52.944;5.928;2024-01-07T06:13:12;3.00;97.70
53422;DHT22;39319;52.944;5.928;2024-01-07T06:15:37;3.30;97.90
53422;DHT22;39319;52.944;5.928;2024-01-07T06:18:03;3.10;97.70
53422;DHT22;39319;52.944;5.928;2024-01-07T06:20:29;2.90;97.60
53422;DHT22;39319;52.944;5.928;2024-01-07T06:22:55;3.10;97.60
53422;DHT22;39319;52.944;5.928;2024-01-07T06:25:21;3.40;97.70
53422;DHT22;39319;52.944;5.928;2024-01-07T06:27:46;3.20;97.70
53422;DHT22;39319;52.944;5.928;2024-01-07T06:30:12;3.10;97.30
53422;DHT22;39319;52.944;5.928;2024-01-07T06:32:39;3.00;97.20
53422;DHT22;39319;52.944;5.928;2024-01-07T06:35:05;2.90;97.20
53422;DHT22;39319;52.944;5.928;2024-01-07T06:37:30;2.90;97.40
53422;DHT22;39319;52.944;5.928;2024-01-07T06:39:57;3.50;97.60
53422;DHT22;39319;52.944;5.928;2024-01-07T06:42:24;3.00;97.60
53422;DHT22;39319;52.944;5.928;2024-01-07T06:44:49;3.10;97.70
53422;DHT22;39319;52.944;5.928;2024-01-07T06:47:15;2.90;97.60
53422;DHT22;39319;52.944;5.928;2024-01-07T06:49:41;3.10;97.30
53422;DHT22;39319;52.944;5.928;2024-01-07T06:52:07;2.90;97.30
53422;DHT22;39319;52.944;5.928;2024-01-07T06:54:32;3.00;97.30
53422;DHT22;39319;52.944;5.928;2024-01-07T06:56:58;3.00;97.30
53422;DHT22;39319;52.944;5.928;2024-01-07T06:59:24;3.00;97.40
53422;DHT22;39319;52.944;5.928;2024-01-07T07:01:50;2.90;97.60
53422;DHT22;39319;52.944;5.928;2024-01-07T07:04:16;3.40;97.40
53422;DHT22;39319;52.944;5.928;2024-01-07T07:06:41;2.80;97.20
53422;DHT22;39319;52.944;5.928;2024-01-07T07:09:07;3.10;97.20
53422;DHT22;39319;52.944;5.928;2024-01-07T07:11:33;3.10;97.30
53422;DHT22;39319;52.944;5.928;2024-01-07T07:13:59;3.10;97.10
53422;DHT22;39319;52.944;5.928;2024-01-07T07:16:25;3.00;97.10
53422;DHT22;39319;52.944;5.928;2024-01-07T07:18:51;2.90;97.00
53422;DHT22;39319;52.944;5.928;2024-01-07T07:21:19;2.80;97.00
53422;DHT22;39319;52.944;5.928;2024-01-07T07:23:44;3.00;97.10
53422;DHT22;39319;52.944;5.928;2024-01-07T07:26:10;2.90;97.10
53422;DHT22;39319;52.944;5.928;2024-01-07T07:28:36;3.00;97.10
53422;DHT22;39319;52.944;5.928;2024-01-07T07:31:02;2.80;97.20
53422;DHT22;39319;52.944;5.928;2024-01-07T07:33:28;2.70;96.90
53422;DHT22;39319;52.944;5.928;2024-01-07T07:35:53;3.10;97.20
53422;DHT22;39319;52.944;5.928;2024-01-07T07:38:19;3.10;96.90
53422;DHT22;39319;52.944;5.928;2024-01-07T07:40:45;2.80;96.70
53422;DHT22;39319;52.944;5.928;2024-01-07T07:43:20;2.80;96.80
53422;DHT22;39319;52.944;5.928;2024-01-07T07:45:46;2.90;96.60
53422;DHT22;39319;52.944;5.928;2024-01-07T07:48:12;2.60;97.00
53422;DHT22;39319;52.944;5.928;2024-01-07T07:50:38;2.70;96.90
53422;DHT22;39319;52.944;5.928;2024-01-07T07:53:04;2.90;96.90
53422;DHT22;39319;52.944;5.928;2024-01-07T07:55:29;3.20;97.10
53422;DHT22;39319;52.944;5.928;2024-01-07T07:57:55;2.70;96.90
53422;DHT22;39319;52.944;5.928;2024-01-07T08:00:21;2.80;96.70
53422;DHT22;39319;52.944;5.928;2024-01-07T08:02:46;2.70;96.50
53422;DHT22;39319;52.944;5.928;2024-01-07T08:05:12;3.20;96.80
53422;DHT22;39319;52.944;5.928;2024-01-07T08:07:39;2.90;96.90
53422;DHT22;39319;52.944;5.928;2024-01-07T08:10:06;3.00;96.70
53422;DHT22;39319;52.944;5.928;2024-01-07T08:12:32;2.90;96.20
53422;DHT22;39319;52.944;5.928;2024-01-07T08:14:57;2.80;96.40
53422;DHT22;39319;52.944;5.928;2024-01-07T08:17:23;2.80;96.30
53422;DHT22;39319;52.944;5.928;2024-01-07T08:19:49;2.90;96.50
53422;DHT22;39319;52.944;5.928;2024-01-07T08:22:15;3.00;96.50
53422;DHT22;39319;52.944;5.928;2024-01-07T08:24:40;2.70;96.50
53422;DHT22;39319;52.944;5.928;2024-01-07T08:27:07;3.00;96.80
53422;DHT22;39319;52.944;5.928;2024-01-07T08:29:33;2.70;96.70
53422;DHT22;39319;52.944;5.928;2024-01-07T08:31:58;2.80;96.50
53422;DHT22;39319;52.944;5.928;2024-01-07T08:34:24;3.30;96.40
53422;DHT22;39319;52.944;5.928;2024-01-07T08:36:50;3.00;96.40
53422;DHT22;39319;52.944;5.928;2024-01-07T08:39:16;2.80;96.20
53422;DHT22;39319;52.944;5.928;2024-01-07T08:41:41;2.70;96.50
53422;DHT22;39319;52.944;5.928;2024-01-07T08:44:07;2.90;96.50
53422;DHT22;39319;52.944;5.928;2024-01-07T08:46:36;3.00;96.00
53422;DHT22;39319;52.944;5.928;2024-01-07T08:49:02;2.70;96.30
53422;DHT22;39319;52.944;5.928;2024-01-07T08:51:28;3.00;96.40
53422;DHT22;39319;52.944;5.928;2024-01-07T08:53:55;3.50;96.20
53422;DHT22;39319;52.944;5.928;2024-01-07T08:56:23;3.40;96.10
53422;DHT22;39319;52.944;5.928;2024-01-07T08:58:48;2.70;95.80
53422;DHT22;39319;52.944;5.928;2024-01-07T09:01:14;2.90;95.80
53422;DHT22;39319;52.944;5.928;2024-01-07T09:03:40;2.60;95.90
53422;DHT22;39319;52.944;5.928;2024-01-07T09:06:07;2.50;95.90
53422;DHT22;39319;52.944;5.928;2024-01-07T09:08:33;2.60;95.90
53422;DHT22;39319;52.944;5.928;2024-01-07T09:11:00;3.10;96.00
53422;DHT22;39319;52.944;5.928;2024-01-07T09:13:27;2.70;95.90
53422;DHT22;39319;52.944;5.928;2024-01-07T09:15:53;2.80;95.80
53422;DHT22;39319;52.944;5.928;2024-01-07T09:18:18;2.70;95.90
53422;DHT22;39319;52.944;5.928;2024-01-07T09:20:44;2.80;96.00
53422;DHT22;39319;52.944;5.928;2024-01-07T09:23:10;2.60;95.80
53422;DHT22;39319;52.944;5.928;2024-01-07T09:25:36;2.50;95.80
53422;DHT22;39319;52.944;5.928;2024-01-07T09:28:01;3.30;96.00
53422;DHT22;39319;52.944;5.928;2024-01-07T09:30:27;2.90;95.80
53422;DHT22;39319;52.944;5.928;2024-01-07T09:32:53;3.00;95.70
53422;DHT22;39319;52.944;5.928;2024-01-07T09:35:18;3.00;95.70
53422;DHT22;39319;52.944;5.928;2024-01-07T09:37:44;2.70;95.60
53422;DHT22;39319;52.944;5.928;2024-01-07T09:40:10;3.00;95.50
53422;DHT22;39319;52.944;5.928;2024-01-07T09:42:37;2.70;95.60
53422;DHT22;39319;52.944;5.928;2024-01-07T09:45:03;2.50;95.70
53422;DHT22;39319;52.944;5.928;2024-01-07T09:47:30;2.60;95.40
53422;DHT22;39319;52.944;5.928;2024-01-07T09:49:55;2.70;95.50
53422;DHT22;39319;52.944;5.928;2024-01-07T09:52:22;3.10;95.40
53422;DHT22;39319;52.944;5.928;2024-01-07T09:54:51;2.60;95.10
53422;DHT22;39319;52.944;5.928;2024-01-07T09:57:18;2.90;95.80
53422;DHT22;39319;52.944;5.928;2024-01-07T09:59:45;3.00;95.40
53422;DHT22;39319;52.944;5.928;2024-01-07T10:02:12;2.90;95.50
53422;DHT22;39319;52.944;5.928;2024-01-07T10:04:38;3.10;95.30
53422;DHT22;39319;52.944;5.928;2024-01-07T10:07:03;2.90;95.10
53422;DHT22;39319;52.944;5.928;2024-01-07T10:09:32;3.20;95.20
53422;DHT22;39319;52.944;5.928;2024-01-07T10:11:58;3.10;95.20
53422;DHT22;39319;52.944;5.928;2024-01-07T10:14:23;2.90;95.00
53422;DHT22;39319;52.944;5.928;2024-01-07T10:16:53;3.20;94.80
53422;DHT22;39319;52.944;5.928;2024-01-07T10:19:23;3.00;95.00
53422;DHT22;39319;52.944;5.928;2024-01-07T10:22:05;3.20;95.30
53422;DHT22;39319;52.944;5.928;2024-01-07T10:24:39;3.60;94.90
53422;DHT22;39319;52.944;5.928;2024-01-07T10:27:05;3.00;94.80
53422;DHT22;39319;52.944;5.928;2024-01-07T10:29:32;3.70;94.80
53422;DHT22;39319;52.944;5.928;2024-01-07T10:32:01;3.30;94.90
53422;DHT22;39319;52.944;5.928;2024-01-07T10:34:35;3.40;94.90
53422;DHT22;39319;52.944;5.928;2024-01-07T10:37:02;4.10;96.80
53422;DHT22;39319;52.944;5.928;2024-01-07T10:39:29;4.10;95.50
53422;DHT22;39319;52.944;5.928;2024-01-07T10:41:55;3.90;94.50
53422;DHT22;39319;52.944;5.928;2024-01-07T10:44:29;4.00;95.40
53422;DHT22;39319;52.944;5.928;2024-01-07T10:46:59;3.80;94.80
53422;DHT22;39319;52.944;5.928;2024-01-07T10:49:28;3.80;94.40
53422;DHT22;39319;52.944;5.928;2024-01-07T10:52:08;3.80;94.30
53422;DHT22;39319;52.944;5.928;2024-01-07T10:54:35;5.20;94.30
53422;DHT22;39319;52.944;5.928;2024-01-07T10:57:24;3.80;94.30
53422;DHT22;39319;52.944;5.928;2024-01-07T10:59:54;3.60;93.60
53422;DHT22;39319;52.944;5.928;2024-01-07T11:02:21;3.80;94.50
53422;DHT22;39319;52.944;5.928;2024-01-07T11:05:11;3.80;93.90
53422;DHT22;39319;52.944;5.928;2024-01-07T11:07:46;4.40;94.20
53422;DHT22;39319;52.944;5.928;2024-01-07T11:10:25;3.60;94.10
53422;DHT22;39319;52.944;5.928;2024-01-07T11:12:55;3.40;94.00
53422;DHT22;39319;52.944;5.928;2024-01-07T11:18:22;3.50;93.50
53422;DHT22;39319;52.944;5.928;2024-01-07T11:20:49;3.60;94.00
53422;DHT22;39319;52.944;5.928;2024-01-07T11:23:34;3.50;94.10
53422;DHT22;39319;52.944;5.928;2024-01-07T11:26:04;3.50;94.20
53422;DHT22;39319;52.944;5.928;2024-01-07T11:28:55;3.60;94.20
53422;DHT22;39319;52.944;5.928;2024-01-07T11:34:10;3.60;94.30
53422;DHT22;39319;52.944;5.928;2024-01-07T11:36:56;3.60;94.00
53422;DHT22;39319;52.944;5.928;2024-01-07T11:39:22;3.70;93.80
53422;DHT22;39319;52.944;5.928;2024-01-07T11:41:48;3.90;94.00
53422;DHT22;39319;52.944;5.928;2024-01-07T11:44:13;6.70;94.20
53422;DHT22;39319;52.944;5.928;2024-01-07T11:46:40;3.90;94.00
53422;DHT22;39319;52.944;5.928;2024-01-07T11:49:08;4.10;93.70
53422;DHT22;39319;52.944;5.928;2024-01-07T11:51:35;4.60;93.70
53422;DHT22;39319;52.944;5.928;2024-01-07T11:54:03;4.10;93.40
53422;DHT22;39319;52.944;5.928;2024-01-07T11:56:29;4.20;93.50
53422;DHT22;39319;52.944;5.928;2024-01-07T11:58:57;4.10;93.40
53422;DHT22;39319;52.944;5.928;2024-01-07T12:01:23;5.00;93.60
53422;DHT22;39319;52.944;5.928;2024-01-07T12:03:48;4.40;93.10
53422;DHT22;39319;52.944;5.928;2024-01-07T12:06:16;4.40;93.40
53422;DHT22;39319;52.944;5.928;2024-01-07T12:08:43;4.30;92.90
53422;DHT22;39319;52.944;5.928;2024-01-07T12:11:12;4.60;92.90
53422;DHT22;39319;52.944;5.928;2024-01-07T12:13:39;4.60;92.80
53422;DHT22;39319;52.944;5.928;2024-01-07T12:16:06;5.00;92.50
53422;DHT22;39319;52.944;5.928;2024-01-07T12:18:32;5.30;92.40
53422;DHT22;39319;52.944;5.928;2024-01-07T12:20:59;5.20;92.40
53422;DHT22;39319;52.944;5.928;2024-01-07T12:23:26;5.20;92.10
53422;DHT22;39319;52.944;5.928;2024-01-07T12:25:53;5.30;92.00
53422;DHT22;39319;52.944;5.928;2024-01-07T12:28:18;5.20;91.70
53422;DHT22;39319;52.944;5.928;2024-01-07T12:30:47;4.00;91.40
53422;DHT22;39319;52.944;5.928;2024-01-07T12:33:17;5.80;91.60
53422;DHT22;39319;52.944;5.928;2024-01-07T12:35:47;5.80;91.50
53422;DHT22;39319;52.944;5.928;2024-01-07T12:38:13;6.00;90.90
53422;DHT22;39319;52.944;5.928;2024-01-07T12:40:39;6.50;91.30
53422;DHT22;39319;52.944;5.928;2024-01-07T12:43:05;6.60;90.80
53422;DHT22;39319;52.944;5.928;2024-01-07T12:45:34;6.70;90.70
53422;DHT22;39319;52.944;5.928;2024-01-07T12:48:00;7.10;90.30
53422;DHT22;39319;52.944;5.928;2024-01-07T12:50:30;6.80;89.80
53422;DHT22;39319;52.944;5.928;2024-01-07T12:52:57;7.00;90.00
53422;DHT22;39319;52.944;5.928;2024-01-07T12:55:23;7.00;89.70
53422;DHT22;39319;52.944;5.928;2024-01-07T12:57:48;6.70;90.10
53422;DHT22;39319;52.944;5.928;2024-01-07T13:00:17;6.60;90.50
53422;DHT22;39319;52.944;5.928;2024-01-07T13:02:43;6.60;90.40
53422;DHT22;39319;52.944;5.928;2024-01-07T13:05:09;6.60;90.60
53422;DHT22;39319;52.944;5.928;2024-01-07T13:07:35;6.30;90.70
53422;DHT22;39319;52.944;5.928;2024-01-07T13:10:01;6.60;90.70
53422;DHT22;39319;52.944;5.928;2024-01-07T13:12:26;6.20;89.70
53422;DHT22;39319;52.944;5.928;2024-01-07T13:14:52;6.20;90.50
53422;DHT22;39319;52.944;5.928;2024-01-07T13:17:19;6.20;90.80
53422;DHT22;39319;52.944;5.928;2024-01-07T13:19:44;6.40;91.10
53422;DHT22;39319;52.944;5.928;2024-01-07T13:22:11;6.90;90.60
53422;DHT22;39319;52.944;5.928;2024-01-07T13:24:37;7.00;90.60
53422;DHT22;39319;52.944;5.928;2024-01-07T13:27:03;6.90;90.30
53422;DHT22;39319;52.944;5.928;2024-01-07T13:29:29;6.80;89.30
53422;DHT22;39319;52.944;5.928;2024-01-07T13:31:55;7.00;89.70
53422;DHT22;39319;52.944;5.928;2024-01-07T13:34:21;7.50;89.40
53422;DHT22;39319;52.944;5.928;2024-01-07T13:36:46;7.10;89.50
53422;DHT22;39319;52.944;5.928;2024-01-07T13:39:12;7.30;88.90
53422;DHT22;39319;52.944;5.928;2024-01-07T13:41:41;6.90;88.60
53422;DHT22;39319;52.944;5.928;2024-01-07T13:44:07;7.50;89.10
53422;DHT22;39319;52.944;5.928;2024-01-07T13:46:33;7.70;89.10
53422;DHT22;39319;52.944;5.928;2024-01-07T13:48:59;7.50;88.60
53422;DHT22;39319;52.944;5.928;2024-01-07T13:51:25;7.50;88.50
53422;DHT22;39319;52.944;5.928;2024-01-07T13:53:51;7.40;89.30
53422;DHT22;39319;52.944;5.928;2024-01-07T13:56:17;7.60;89.50
53422;DHT22;39319;52.944;5.928;2024-01-07T13:58:43;7.80;89.60
53422;DHT22;39319;52.944;5.928;2024-01-07T14:01:13;7.70;90.10
53422;DHT22;39319;52.944;5.928;2024-01-07T14:03:39;7.70;90.30
53422;DHT22;39319;52.944;5.928;2024-01-07T14:06:05;7.70;90.10
53422;DHT22;39319;52.944;5.928;2024-01-07T14:08:31;7.00;90.30
53422;DHT22;39319;52.944;5.928;2024-01-07T14:10:56;7.00;90.60
53422;DHT22;39319;52.944;5.928;2024-01-07T14:13:23;6.70;90.80
53422;DHT22;39319;52.944;5.928;2024-01-07T14:15:49;6.40;91.20
53422;DHT22;39319;52.944;5.928;2024-01-07T14:18:14;6.30;91.30
53422;DHT22;39319;52.944;5.928;2024-01-07T14:20:42;6.10;91.70
53422;DHT22;39319;52.944;5.928;2024-01-07T14:23:08;5.80;91.40
53422;DHT22;39319;52.944;5.928;2024-01-07T14:25:35;5.50;92.10
53422;DHT22;39319;52.944;5.928;2024-01-07T14:28:01;5.50;92.40
53422;DHT22;39319;52.944;5.928;2024-01-07T14:30:27;5.20;92.50
53422;DHT22;39319;52.944;5.928;2024-01-07T14:32:53;5.30;92.70
53422;DHT22;39319;52.944;5.928;2024-01-07T14:35:19;5.40;92.80
53422;DHT22;39319;52.944;5.928;2024-01-07T14:37:44;5.20;93.20
53422;DHT22;39319;52.944;5.928;2024-01-07T14:40:10;4.80;93.10
53422;DHT22;39319;52.944;5.928;2024-01-07T14:42:36;4.90;93.10
53422;DHT22;39319;52.944;5.928;2024-01-07T14:45:02;5.00;93.20
53422;DHT22;39319;52.944;5.928;2024-01-07T14:47:29;4.90;93.50
53422;DHT22;39319;52.944;5.928;2024-01-07T14:49:55;5.10;93.50
53422;DHT22;39319;52.944;5.928;2024-01-07T14:52:22;4.50;93.70
53422;DHT22;39319;52.944;5.928;2024-01-07T14:54:48;4.90;93.40
53422;DHT22;39319;52.944;5.928;2024-01-07T14:57:14;4.40;93.60
53422;DHT22;39319;52.944;5.928;2024-01-07T14:59:39;4.60;93.80
53422;DHT22;39319;52.944;5.928;2024-01-07T15:02:05;5.00;93.70
53422;DHT22;39319;52.944;5.928;2024-01-07T15:04:31;4.40;93.70
53422;DHT22;39319;52.944;5.928;2024-01-07T15:06:57;4.50;93.80
53422;DHT22;39319;52.944;5.928;2024-01-07T15:09:23;4.20;94.10
53422;DHT22;39319;52.944;5.928;2024-01-07T15:11:49;4.30;94.20
53422;DHT22;39319;52.944;5.928;2024-01-07T15:14:15;4.30;94.40
53422;DHT22;39319;52.944;5.928;2024-01-07T15:16:41;4.20;94.60
53422;DHT22;39319;52.944;5.928;2024-01-07T15:19:06;4.10;94.70
53422;DHT22;39319;52.944;5.928;2024-01-07T15:21:32;4.80;94.90
53422;DHT22;39319;52.944;5.928;2024-01-07T15:23:58;4.30;94.60
53422;DHT22;39319;52.944;5.928;2024-01-07T15:26:24;4.10;95.00
53422;DHT22;39319;52.944;5.928;2024-01-07T15:28:50;4.10;94.90
53422;DHT22;39319;52.944;5.928;2024-01-07T15:31:16;4.00;94.80
53422;DHT22;39319;52.944;5.928;2024-01-07T15:33:41;4.50;94.90
53422;DHT22;39319;52.944;5.928;2024-01-07T15:36:07;4.00;94.90
53422;DHT22;39319;52.944;5.928;2024-01-07T15:38:33;3.90;94.80
53422;DHT22;39319;52.944;5.928;2024-01-07T15:40:59;4.00;95.00
53422;DHT22;39319;52.944;5.928;2024-01-07T15:43:25;4.20;95.00
53422;DHT22;39319;52.944;5.928;2024-01-07T15:45:50;3.50;95.00